Time;durP1;ratioP1;P1;durP2;ratioP2;P2;SDS_P1;SDS_P2;PMS_P1;PMS_P2;Temp;Humidity;BMP_temperature;BMP_pressure;BME280_temperature;BME280_humidity;BME280_pressure;Samples;Min_cycle;Max_cycle;Signal;HPM_P1;HPM_P2
2024/03/16 00:05:12;;;;;;;0.08;0.08;;;;;;;11.84;71.65;100506.00;15337762;28;20043;-50
2024/03/16 00:12:47;;;;;;;0.57;0.38;;;;;;;11.54;73.64;100500.50;15356657;28;20066;-48
2024/03/16 00:20:21;;;;;;;0.65;0.43;;;;;;;11.36;74.51;100510.19;15349852;28;20463;-52
2024/03/16 00:27:59;;;;;;;0.20;0.20;;;;;;;11.36;73.67;100499.44;15356694;28;20070;-51
2024/03/16 00:35:33;;;;;;;0.52;0.17;;;;;;;11.69;72.46;100504.47;15337824;28;20050;-47
2024/03/16 00:43:07;;;;;;;0.00;0.00;;;;;;;11.47;72.52;100508.63;15324867;28;20043;-51
2024/03/16 00:50:41;;;;;;;0.00;0.00;;;;;;;11.24;73.96;100493.97;15348460;28;20055;-51
2024/03/16 00:58:18;;;;;;;0.00;0.00;;;;;;;11.19;73.44;100490.28;15350955;28;20059;-52
2024/03/16 01:05:53;;;;;;;0.20;0.10;;;;;;;11.20;73.61;100494.63;15354521;28;20047;-50
2024/03/16 01:13:27;;;;;;;0.40;0.25;;;;;;;10.78;75.06;100498.91;15353867;28;20051;-49
2024/03/16 01:21:01;;;;;;;0.08;0.08;;;;;;;10.60;76.07;100496.94;15330618;28;20160;-51
2024/03/16 01:28:35;;;;;;;0.20;0.20;;;;;;;11.45;72.81;100499.97;15335307;28;20360;-50
2024/03/16 01:36:09;;;;;;;0.00;0.00;;;;;;;10.92;74.81;100497.75;15318529;28;20035;-52
2024/03/16 01:43:48;;;;;;;0.00;0.00;;;;;;;10.81;74.61;100463.53;15354526;28;20054;-54
2024/03/16 01:51:25;;;;;;;0.32;0.32;;;;;;;11.02;74.90;100495.41;15348338;28;20043;-53
2024/03/16 01:58:59;;;;;;;0.20;0.20;;;;;;;11.13;74.93;100508.09;15341079;28;20050;-50
2024/03/16 02:06:32;;;;;;;0.00;0.00;;;;;;;11.25;74.94;100500.16;15352796;28;20117;-50
2024/03/16 02:14:07;;;;;;;0.00;0.00;;;;;;;11.19;74.73;100518.00;15324892;28;20047;-50
2024/03/16 02:21:41;;;;;;;0.25;0.25;;;;;;;11.34;74.66;100514.16;15346510;28;20113;-49
2024/03/16 02:29:18;;;;;;;0.00;0.00;;;;;;;11.29;74.54;100511.31;15356857;28;20075;-51
2024/03/16 02:36:54;;;;;;;0.00;0.00;;;;;;;11.28;74.14;100477.41;15337776;28;20067;-50
2024/03/16 02:44:32;;;;;;;0.00;0.00;;;;;;;11.63;73.69;100513.44;15355088;28;20066;-48
2024/03/16 02:52:12;;;;;;;0.00;0.00;;;;;;;11.22;75.06;100522.09;15353297;28;20047;-50
2024/03/16 02:59:46;;;;;;;0.08;0.08;;;;;;;11.33;75.37;100521.41;15361252;28;20071;-54
2024/03/16 03:07:20;;;;;;;0.00;0.00;;;;;;;11.18;77.23;100519.00;15341716;28;20039;-49
2024/03/16 03:14:57;;;;;;;0.00;0.00;;;;;;;11.82;74.99;100519.69;15359866;28;20058;-49
2024/03/16 03:22:31;;;;;;;0.10;0.10;;;;;;;11.66;75.55;100521.06;15343542;28;20047;-49
2024/03/16 03:30:07;;;;;;;0.00;0.00;;;;;;;11.30;77.01;100531.75;15345302;28;20073;-52
2024/03/16 03:37:41;;;;;;;0.00;0.00;;;;;;;11.56;76.63;100531.47;15379077;28;20073;-51
2024/03/16 03:45:27;;;;;;;1.08;0.77;;;;;;;11.48;76.44;100532.63;15349747;28;20090;-51
2024/03/16 03:53:02;;;;;;;0.00;0.00;;;;;;;11.56;76.10;100542.25;15337115;28;20050;-48
2024/03/16 04:00:45;;;;;;;0.00;0.00;;;;;;;11.78;74.52;100536.44;15336574;28;20044;-54
2024/03/16 04:08:31;;;;;;;0.00;0.00;;;;;;;11.24;75.64;100538.84;15335179;28;20035;-49
2024/03/16 04:16:12;;;;;;;0.00;0.00;;;;;;;11.22;75.46;100540.91;15349219;28;20440;-49
2024/03/16 04:23:50;;;;;;;0.38;0.20;;;;;;;11.12;75.65;100540.56;15356851;28;20546;-49
2024/03/16 04:31:32;;;;;;;0.00;0.00;;;;;;;11.10;76.01;100551.53;15373225;28;20038;-48
2024/03/16 04:39:08;;;;;;;0.32;0.15;;;;;;;10.91;76.20;100549.78;15341513;28;20047;-51
2024/03/16 04:46:42;;;;;;;3.10;0.38;;;;;;;10.88;75.87;100552.94;15339906;28;20408;-50
2024/03/16 04:54:16;;;;;;;0.00;0.00;;;;;;;10.93;74.93;100559.28;15333924;28;20146;-54
2024/03/16 05:01:51;;;;;;;0.00;0.00;;;;;;;10.55;76.07;100555.81;15363310;28;20108;-49
2024/03/16 05:09:26;;;;;;;0.10;0.10;;;;;;;10.50;76.05;100569.06;15335659;28;20404;-51
2024/03/16 05:17:09;;;;;;;0.00;0.00;;;;;;;10.53;75.39;100557.88;15365019;28;20139;-53
2024/03/16 05:24:42;;;;;;;;;;;;;;;9.99;78.01;100569.84;15353092;28;20059;-52
2024/03/16 05:32:17;;;;;;;0.35;0.35;;;;;;;9.94;78.16;100567.78;15349586;28;19957;-50
2024/03/16 05:39:59;;;;;;;0.00;0.00;;;;;;;10.12;77.73;100575.97;15342423;28;20043;-53
2024/03/16 05:47:36;;;;;;;0.35;0.22;;;;;;;10.43;75.85;100571.75;15352745;28;20043;-51
2024/03/16 05:55:18;;;;;;;0.00;0.00;;;;;;;9.82;78.60;100575.63;15356295;28;20046;-53
2024/03/16 06:02:56;;;;;;;1.38;0.65;;;;;;;9.96;77.95;100581.78;15338374;28;20078;-52
2024/03/16 06:10:39;;;;;;;0.00;0.00;;;;;;;10.41;77.04;100582.72;15349007;28;20051;-52
2024/03/16 06:18:13;;;;;;;0.00;0.00;;;;;;;10.42;77.23;100603.13;15352203;28;20125;-54
2024/03/16 06:26:03;;;;;;;0.55;0.10;;;;;;;10.41;78.01;100606.03;15354662;28;20070;-52
2024/03/16 06:33:44;;;;;;;0.00;0.00;;;;;;;10.63;76.65;100602.03;15325299;28;20075;-51
2024/03/16 06:41:18;;;;;;;0.05;0.05;;;;;;;10.77;76.49;100618.91;15352151;28;20415;-51
2024/03/16 06:48:54;;;;;;;0.00;0.00;;;;;;;10.67;76.73;100627.38;15344832;28;20057;-51
2024/03/16 06:56:27;;;;;;;0.00;0.00;;;;;;;10.64;75.92;100635.88;15342297;28;20515;-53
2024/03/16 07:04:02;;;;;;;0.00;0.00;;;;;;;10.96;74.93;100639.44;15315110;28;20050;-53
2024/03/16 07:11:36;;;;;;;0.00;0.00;;;;;;;10.87;75.34;100653.34;15340172;28;20046;-53
2024/03/16 07:19:10;;;;;;;0.00;0.00;;;;;;;11.14;74.14;100662.88;15338237;28;20432;-48
2024/03/16 07:26:44;;;;;;;0.00;0.00;;;;;;;11.41;72.99;100668.09;15332191;28;20044;-51
2024/03/16 07:34:18;;;;;;;0.00;0.00;;;;;;;11.53;72.80;100670.91;15353722;28;20093;-53
2024/03/16 07:41:52;;;;;;;0.00;0.00;;;;;;;11.43;72.85;100674.09;15311135;28;20136;-53
2024/03/16 07:49:28;;;;;;;0.03;0.03;;;;;;;11.16;74.14;100676.09;15328601;28;20109;-49
2024/03/16 07:57:02;;;;;;;0.00;0.00;;;;;;;11.27;74.61;100677.28;15316519;28;20031;-52
2024/03/16 08:04:36;;;;;;;0.05;0.05;;;;;;;11.31;74.08;100678.50;15302757;28;20231;-51
2024/03/16 08:12:11;;;;;;;4.82;1.85;;;;;;;11.39;73.47;100684.44;15289117;29;20056;-49
2024/03/16 08:19:45;;;;;;;0.13;0.03;;;;;;;11.37;73.94;100685.69;15307138;28;20130;-50
2024/03/16 08:27:19;;;;;;;0.00;0.00;;;;;;;11.30;73.74;100682.22;15328183;28;20123;-51
2024/03/16 08:34:54;;;;;;;0.00;0.00;;;;;;;11.20;76.90;100688.06;15353750;28;20177;-49
2024/03/16 08:42:29;;;;;;;0.13;0.10;;;;;;;11.27;77.10;100688.03;15346551;28;20047;-52
2024/03/16 08:50:08;;;;;;;0.00;0.00;;;;;;;11.31;77.68;100681.19;15356466;28;20044;-50
2024/03/16 08:57:42;;;;;;;0.00;0.00;;;;;;;11.44;76.34;100681.09;15353627;28;20059;-54
2024/03/16 09:05:16;;;;;;;0.00;0.00;;;;;;;11.78;75.93;100687.03;15352815;28;20122;-52
2024/03/16 09:12:50;;;;;;;0.00;0.00;;;;;;;12.63;72.24;100693.47;15349376;28;20050;-52
2024/03/16 09:20:27;;;;;;;0.05;0.05;;;;;;;13.70;68.78;100693.69;15361277;29;20047;-51
2024/03/16 09:28:00;;;;;;;0.00;0.00;;;;;;;14.88;63.79;100699.91;15316190;28;20047;-53
2024/03/16 09:35:34;;;;;;;0.00;0.00;;;;;;;16.12;58.18;100699.13;15331204;28;20353;-51
2024/03/16 09:43:09;;;;;;;0.10;0.10;;;;;;;15.39;58.28;100705.44;15297290;28;20055;-54
2024/03/16 09:50:47;;;;;;;0.00;0.00;;;;;;;14.86;60.77;100704.69;15327380;28;20150;-48
2024/03/16 09:58:21;;;;;;;0.73;0.22;;;;;;;15.64;57.74;100692.41;15326625;28;20543;-53
2024/03/16 10:05:55;;;;;;;0.03;0.03;;;;;;;16.93;53.83;100693.19;15305320;28;20067;-51
2024/03/16 10:13:30;;;;;;;0.32;0.32;;;;;;;14.25;64.96;100714.16;15330706;28;20126;-51
2024/03/16 10:21:05;;;;;;;0.03;0.03;;;;;;;12.95;71.32;100744.47;15323177;28;20408;-50
2024/03/16 10:28:39;;;;;;;0.22;0.20;;;;;;;12.87;75.74;100742.94;15348421;28;20055;-49
2024/03/16 10:36:15;;;;;;;2.17;0.68;;;;;;;12.51;78.68;100755.34;15312504;28;20066;-54
2024/03/16 10:43:52;;;;;;;0.35;0.28;;;;;;;12.09;81.53;100756.97;15319668;28;20040;-51
2024/03/16 10:51:26;;;;;;;0.00;0.00;;;;;;;12.12;80.58;100761.06;15308856;28;20122;-50
2024/03/16 10:59:06;;;;;;;1.25;0.65;;;;;;;12.99;78.22;100759.97;15304392;28;20504;-53
2024/03/16 11:06:42;;;;;;;0.00;0.00;;;;;;;12.19;80.05;100759.97;15338850;28;20044;-46
2024/03/16 11:14:17;;;;;;;0.43;0.43;;;;;;;12.69;79.45;100761.78;15314265;28;20504;-53
2024/03/16 11:21:52;;;;;;;36.05;1.20;;;;;;;12.33;79.42;100778.69;15351706;28;20415;-51
2024/03/16 11:29:28;;;;;;;0.25;0.15;;;;;;;12.80;79.31;100789.84;15305980;28;20048;-51
2024/03/16 11:37:04;;;;;;;0.30;0.30;;;;;;;12.23;78.67;100782.72;15289821;28;20104;-50
2024/03/16 11:44:45;;;;;;;0.10;0.10;;;;;;;11.48;82.18;100793.34;15342809;28;20079;-53
2024/03/16 11:52:28;;;;;;;0.40;0.28;;;;;;;11.34;83.81;100801.69;15304911;28;20042;-51
2024/03/16 12:00:02;;;;;;;;;;;;;;;10.57;86.85;100828.31;15309117;28;20043;-51
2024/03/16 12:07:49;;;;;;;0.00;0.00;;;;;;;10.83;84.63;100789.03;15308465;28;20384;-51
2024/03/16 12:15:24;;;;;;;0.00;0.00;;;;;;;11.59;83.02;100836.69;15288857;28;20047;-50
2024/03/16 12:22:58;;;;;;;0.00;0.00;;;;;;;10.89;85.23;100849.97;15307551;28;20083;-52
2024/03/16 12:30:34;;;;;;;0.00;0.00;;;;;;;11.07;82.09;100876.16;15289375;28;20039;-52
2024/03/16 12:38:10;;;;;;;11.70;1.75;;;;;;;10.30;80.04;100899.94;15301522;28;20040;-51
2024/03/16 12:45:44;;;;;;;0.00;0.00;;;;;;;9.89;80.22;100916.13;15309534;28;20048;-49
2024/03/16 12:53:18;;;;;;;1.90;0.32;;;;;;;9.94;78.40;100932.44;15288793;28;20043;-52
2024/03/16 13:01:00;;;;;;;0.00;0.00;;;;;;;9.62;77.52;100950.03;15296259;28;20459;-55
2024/03/16 13:08:36;;;;;;;0.00;0.00;;;;;;;9.53;77.24;100897.63;15272636;28;20047;-52
2024/03/16 13:16:10;;;;;;;0.00;0.00;;;;;;;10.44;75.26;100941.03;15287577;28;20544;-51
2024/03/16 13:23:44;;;;;;;0.20;0.20;;;;;;;10.09;74.31;100970.63;15387697;28;20039;-51
2024/03/16 13:39:16;;;;;;;0.10;0.10;;;;;;;10.05;71.61;101006.09;15329592;28;20039;-53
2024/03/16 13:46:53;;;;;;;0.00;0.00;;;;;;;9.81;68.71;101026.22;15306692;28;20106;-50
2024/03/16 13:54:28;;;;;;;0.00;0.00;;;;;;;9.77;67.88;101033.00;15380110;28;20036;-53
2024/03/16 14:02:07;;;;;;;0.00;0.00;;;;;;;9.48;66.57;101026.84;15328329;28;20099;-52
2024/03/16 14:09:41;;;;;;;0.00;0.00;;;;;;;9.74;63.95;101047.59;15316659;28;20082;-52
2024/03/16 14:17:17;;;;;;;0.40;0.38;;;;;;;9.56;61.14;101056.16;15358774;28;20040;-49
2024/03/16 14:24:51;;;;;;;0.00;0.00;;;;;;;9.99;60.96;101079.31;15315493;28;20048;-51
2024/03/16 14:32:25;;;;;;;0.00;0.00;;;;;;;9.73;59.35;101083.47;15341330;28;20054;-53
2024/03/16 14:40:09;;;;;;;0.00;0.00;;;;;;;9.50;59.32;101099.81;15260465;28;20130;-53
2024/03/16 14:47:43;;;;;;;0.00;0.00;;;;;;;9.62;58.72;101114.34;15310287;28;20098;-53
2024/03/16 14:55:18;;;;;;;0.00;0.00;;;;;;;9.80;58.41;101132.63;15316947;28;20439;-52
2024/03/16 15:02:53;;;;;;;0.47;0.35;;;;;;;9.39;57.79;101141.34;15369973;28;20180;-52
2024/03/16 15:10:27;;;;;;;0.08;0.08;;;;;;;9.53;57.54;101147.66;15338198;28;20417;-49
2024/03/16 15:18:03;;;;;;;7.75;0.57;;;;;;;9.63;57.26;101148.16;15299815;28;20112;-53
2024/03/16 15:25:51;;;;;;;0.00;0.00;;;;;;;9.59;58.20;101162.13;15356607;28;20039;-48
2024/03/16 15:33:26;;;;;;;0.00;0.00;;;;;;;9.64;58.15;101171.25;15333410;28;20059;-49
2024/03/16 15:41:00;;;;;;;0.00;0.00;;;;;;;9.65;58.37;101174.75;15331712;28;20055;-50
2024/03/16 15:48:34;;;;;;;0.00;0.00;;;;;;;9.46;57.93;101170.88;15340821;28;20057;-49
2024/03/16 15:56:08;;;;;;;0.10;0.10;;;;;;;9.70;57.25;101186.56;15323493;28;20043;-49
2024/03/16 16:03:45;;;;;;;0.00;0.00;;;;;;;10.09;56.30;101198.63;15309277;28;20039;-51
2024/03/16 16:11:20;;;;;;;0.00;0.00;;;;;;;10.21;56.08;101210.47;15321850;28;20047;-54
2024/03/16 16:18:55;;;;;;;0.00;0.00;;;;;;;9.71;57.38;101220.41;15221042;23;20048;-49
2024/03/16 16:26:29;;;;;;;0.00;0.00;;;;;;;9.27;58.58;101203.66;15201507;28;20044;-47
2024/03/16 16:34:04;;;;;;;0.00;0.00;;;;;;;9.44;58.63;101234.56;15206272;28;20045;-48
2024/03/16 16:41:40;;;;;;;0.00;0.00;;;;;;;9.41;58.20;101242.97;15165065;28;20053;-48
2024/03/16 16:49:15;;;;;;;0.00;0.00;;;;;;;9.15;59.51;101255.06;15182731;28;20052;-49
2024/03/16 16:56:49;;;;;;;0.22;0.22;;;;;;;9.07;60.03;101263.19;15205999;28;20131;-48
2024/03/16 17:04:23;;;;;;;0.88;0.75;;;;;;;8.90;59.75;101267.91;15163934;28;20036;-47
2024/03/16 17:11:57;;;;;;;0.65;0.60;;;;;;;8.57;60.31;101286.19;15244443;28;20048;-47
2024/03/16 17:19:32;;;;;;;0.00;0.00;;;;;;;8.97;59.01;101289.44;15195709;28;20072;-48
2024/03/16 17:27:10;;;;;;;0.22;0.22;;;;;;;8.45;59.51;101309.09;15254393;28;20454;-47
2024/03/16 17:34:44;;;;;;;0.20;0.10;;;;;;;8.58;58.10;101325.34;15212341;28;20183;-49
2024/03/16 17:42:18;;;;;;;0.00;0.00;;;;;;;8.51;57.30;101334.28;15199023;28;20078;-47
2024/03/16 17:49:52;;;;;;;0.00;0.00;;;;;;;8.21;57.97;101319.97;15197784;28;20048;-53
2024/03/16 17:57:27;;;;;;;1.45;1.13;;;;;;;7.86;59.40;101347.13;15173729;28;20480;-51
2024/03/16 18:05:01;;;;;;;0.00;0.00;;;;;;;8.36;57.50;101356.47;15211649;28;20470;-48
2024/03/16 18:12:41;;;;;;;0.00;0.00;;;;;;;8.21;58.16;101366.28;15226803;28;20051;-48
2024/03/16 18:20:18;;;;;;;0.00;0.00;;;;;;;8.15;58.37;101377.66;15203456;28;20080;-51
2024/03/16 18:27:53;;;;;;;2.45;0.70;;;;;;;8.16;58.11;101380.19;15188013;28;20576;-50
2024/03/16 18:35:27;;;;;;;0.22;0.22;;;;;;;7.95;58.60;101388.00;15210611;28;20132;-49
2024/03/16 18:43:12;;;;;;;0.00;0.00;;;;;;;7.67;59.23;101393.84;15234465;28;20044;-50
2024/03/16 18:50:46;;;;;;;0.00;0.00;;;;;;;7.57;59.44;101403.91;15200077;28;20124;-51
2024/03/16 18:58:22;;;;;;;0.05;0.05;;;;;;;7.66;58.20;101421.56;15260385;28;20048;-50
2024/03/16 19:05:56;;;;;;;0.00;0.00;;;;;;;7.62;58.43;101440.81;15217919;28;20198;-49
2024/03/16 19:13:31;;;;;;;3.28;1.77;;;;;;;7.33;58.39;101454.78;15213568;28;20047;-53
2024/03/16 19:21:05;;;;;;;0.00;0.00;;;;;;;7.39;57.65;101462.09;15181357;28;20076;-50
2024/03/16 19:28:40;;;;;;;0.30;0.28;;;;;;;7.65;57.42;101478.69;15220355;28;20053;-47
2024/03/16 19:36:14;;;;;;;0.00;0.00;;;;;;;7.45;57.80;101495.28;15211093;28;20461;-49
2024/03/16 19:43:49;;;;;;;0.10;0.10;;;;;;;7.12;58.40;101500.69;15253498;28;20064;-46
2024/03/16 19:51:23;;;;;;;11.57;1.67;;;;;;;7.22;58.72;101506.69;15212154;28;20079;-45
2024/03/16 19:58:58;;;;;;;0.00;0.00;;;;;;;6.81;59.96;101519.25;15262354;28;20040;-48
2024/03/16 20:06:32;;;;;;;0.00;0.00;;;;;;;7.27;59.07;101525.69;15220538;28;20079;-50
2024/03/16 20:14:10;;;;;;;0.00;0.00;;;;;;;6.92;60.26;101536.75;15220058;28;20417;-53
2024/03/16 20:21:43;;;;;;;0.00;0.00;;;;;;;6.65;60.75;101539.53;15219904;28;20441;-52
2024/03/16 20:29:20;;;;;;;0.38;0.15;;;;;;;6.71;59.95;101546.06;15217171;28;20048;-48
2024/03/16 20:37:01;;;;;;;0.00;0.00;;;;;;;6.60;60.00;101557.06;15257275;28;20084;-50
2024/03/16 20:44:37;;;;;;;0.00;0.00;;;;;;;6.25;61.04;101568.78;15224944;28;20057;-52
2024/03/16 20:52:11;;;;;;;0.00;0.00;;;;;;;6.44;59.47;101581.88;15228382;29;20049;-48
2024/03/16 20:59:47;;;;;;;0.10;0.10;;;;;;;6.27;60.40;101591.63;15293812;28;20052;-50
2024/03/16 21:07:21;;;;;;;0.30;0.30;;;;;;;6.38;59.40;101596.66;15258351;28;20131;-47
2024/03/16 21:14:57;;;;;;;0.00;0.00;;;;;;;6.13;59.89;101610.91;15269068;28;20056;-51
2024/03/16 21:22:38;;;;;;;0.63;0.63;;;;;;;6.51;58.65;101616.72;15214191;28;20313;-47
2024/03/16 21:30:15;;;;;;;0.00;0.00;;;;;;;6.07;60.27;101615.03;15229398;28;20214;-48
2024/03/16 21:45:44;;;;;;;0.00;0.00;;;;;;;5.57;61.05;101633.53;15241422;28;20129;-52
2024/03/16 21:53:18;;;;;;;0.00;0.00;;;;;;;5.91;60.27;101636.22;15207823;28;20040;-49
2024/03/16 22:00:54;;;;;;;0.00;0.00;;;;;;;5.45;61.48;101637.41;15266567;28;20046;-50
2024/03/16 22:08:28;;;;;;;1.60;0.90;;;;;;;5.07;62.82;101647.41;15266423;28;20100;-51
2024/03/16 22:16:06;;;;;;;0.00;0.00;;;;;;;5.52;61.68;101657.13;15422321;23;20077;-51
2024/03/16 22:23:40;;;;;;;4.65;2.28;;;;;;;5.14;62.47;101658.28;15612400;28;20395;-53
2024/03/16 22:31:15;;;;;;;0.00;0.00;;;;;;;5.29;62.01;101670.06;15600380;28;20076;-51
2024/03/16 22:38:49;;;;;;;0.00;0.00;;;;;;;5.41;61.91;101675.97;15611942;28;20038;-53
2024/03/16 22:46:34;;;;;;;0.00;0.00;;;;;;;5.10;62.97;101677.22;15604129;28;20100;-50
2024/03/16 22:54:23;;;;;;;0.00;0.00;;;;;;;5.31;62.44;101676.91;15586810;28;20140;-48
2024/03/16 23:02:01;;;;;;;0.00;0.00;;;;;;;5.20;62.69;101687.78;15606946;28;20137;-51
2024/03/16 23:09:36;;;;;;;0.00;0.00;;;;;;;4.82;63.67;101700.38;15612566;28;20542;-48
2024/03/16 23:17:22;;;;;;;0.10;0.10;;;;;;;4.84;63.89;101717.00;15610015;28;20568;-51
2024/03/16 23:24:56;;;;;;;0.32;0.32;;;;;;;4.77;63.58;101723.06;15604634;28;20075;-47
2024/03/16 23:32:32;;;;;;;0.00;0.00;;;;;;;4.92;63.52;101729.56;15610406;28;20045;-50
2024/03/16 23:40:07;;;;;;;0.00;0.00;;;;;;;4.68;63.79;101719.47;15601653;28;20038;-49
2024/03/16 23:47:43;;;;;;;0.00;0.00;;;;;;;4.52;64.65;101719.25;15599234;28;20064;-46
2024/03/16 23:55:17;;;;;;;5.68;0.85;;;;;;;4.20;65.50;101733.81;15595233;28;20395;-49
